createdAt,value
2023-05-15T00:00:52.182Z,3.50
2023-05-15T00:03:20.292Z,3.50
2023-05-15T00:05:48.350Z,3.13
2023-05-15T00:08:16.311Z,2.50
2023-05-15T00:10:57.465Z,2.70
2023-05-15T00:13:28.824Z,3.30
2023-05-15T00:15:58.116Z,4.40
2023-05-15T00:18:26.129Z,4.13
2023-05-15T00:20:54.053Z,3.07
2023-05-15T00:23:21.940Z,2.20
2023-05-15T00:25:49.878Z,2.90
2023-05-15T00:28:17.841Z,2.67
2023-05-15T00:30:45.718Z,2.73
2023-05-15T00:33:14.940Z,2.80
2023-05-15T00:35:42.876Z,2.23
2023-05-15T00:38:10.785Z,2.87
2023-05-15T00:40:39.637Z,3.10
2023-05-15T00:43:08.014Z,3.50
2023-05-15T00:45:36.531Z,2.23
2023-05-15T00:48:06.000Z,3.00
2023-05-15T00:50:36.029Z,2.73
2023-05-15T00:53:04.680Z,2.50
2023-05-15T00:55:34.466Z,2.70
2023-05-15T00:58:03.376Z,5.77
2023-05-15T01:00:32.943Z,4.67
2023-05-15T01:03:01.854Z,5.03
2023-05-15T01:05:30.454Z,4.93
2023-05-15T01:08:08.968Z,6.00
2023-05-15T01:10:37.387Z,3.50
2023-05-15T01:13:06.152Z,5.60
2023-05-15T01:15:34.176Z,5.90
2023-05-15T01:18:03.346Z,8.00
2023-05-15T01:20:40.695Z,5.70
2023-05-15T01:23:20.375Z,5.73
2023-05-15T01:26:03.818Z,5.60
2023-05-15T01:28:39.371Z,4.73
2023-05-15T01:31:13.687Z,5.10
2023-05-15T01:33:44.998Z,3.90
2023-05-15T01:36:20.071Z,3.97
2023-05-15T01:38:53.415Z,3.67
2023-05-15T01:41:27.746Z,3.93
2023-05-15T01:44:03.673Z,3.57
2023-05-15T01:46:32.637Z,3.90
2023-05-15T01:49:03.509Z,3.00
2023-05-15T01:51:33.055Z,2.60
2023-05-15T01:54:01.250Z,3.30
2023-05-15T01:56:30.452Z,2.20
2023-05-15T01:59:01.289Z,2.60
2023-05-15T02:01:30.849Z,2.47
2023-05-15T02:03:58.975Z,3.10
2023-05-15T02:06:27.111Z,2.87
2023-05-15T02:08:57.466Z,2.70
2023-05-15T02:11:25.604Z,2.50
2023-05-15T02:13:55.945Z,3.60
2023-05-15T02:16:25.424Z,2.60
2023-05-15T02:18:53.635Z,2.87
2023-05-15T02:21:21.777Z,2.50
2023-05-15T02:23:49.646Z,2.50
2023-05-15T02:26:30.770Z,2.93
2023-05-15T02:29:07.616Z,2.63
2023-05-15T02:31:44.897Z,3.00
2023-05-15T02:34:19.217Z,2.70
2023-05-15T02:36:50.745Z,2.60
2023-05-15T02:39:19.726Z,2.60
2023-05-15T02:41:48.953Z,2.93
2023-05-15T02:44:18.581Z,2.83
2023-05-15T02:46:49.095Z,2.50
2023-05-15T02:49:17.028Z,2.93
2023-05-15T02:51:45.178Z,3.10
2023-05-15T02:54:13.413Z,7.10
2023-05-15T02:56:41.457Z,2.70
2023-05-15T02:59:09.298Z,3.00
2023-05-15T03:01:37.279Z,2.67
2023-05-15T03:04:06.720Z,3.10
2023-05-15T03:06:34.641Z,2.40
2023-05-15T03:09:02.891Z,2.57
2023-05-15T03:11:30.776Z,3.50
2023-05-15T03:14:00.017Z,3.20
2023-05-15T03:16:28.153Z,3.00
2023-05-15T03:18:56.192Z,2.87
2023-05-15T03:21:25.584Z,3.80
2023-05-15T03:23:53.432Z,2.80
2023-05-15T03:26:21.781Z,2.77
2023-05-15T03:28:49.690Z,2.97
2023-05-15T03:31:17.589Z,2.80
2023-05-15T03:33:49.767Z,2.80
2023-05-15T03:36:17.622Z,4.40
2023-05-15T03:38:46.913Z,2.80
2023-05-15T03:41:14.850Z,2.90
2023-05-15T03:43:43.074Z,2.87
2023-05-15T03:46:11.199Z,2.80
2023-05-15T03:48:39.111Z,3.10
2023-05-15T03:51:07.066Z,2.93
2023-05-15T03:53:35.175Z,2.57
2023-05-15T03:56:04.565Z,2.67
2023-05-15T03:58:32.903Z,2.83
2023-05-15T04:01:00.973Z,3.40
2023-05-15T04:03:29.013Z,3.30
2023-05-15T04:05:56.948Z,2.97
2023-05-15T04:08:24.927Z,3.00
2023-05-15T04:10:53.143Z,2.77
2023-05-15T04:13:22.440Z,3.17
2023-05-15T04:15:50.273Z,2.67
2023-05-15T04:18:18.154Z,2.87
2023-05-15T04:20:46.002Z,2.40
2023-05-15T04:23:13.867Z,3.73
2023-05-15T04:25:46.394Z,2.50
2023-05-15T04:28:14.328Z,2.60
2023-05-15T04:30:43.703Z,2.30
2023-05-15T04:33:12.121Z,2.60
2023-05-15T04:35:40.320Z,2.10
2023-05-15T04:38:08.232Z,2.73
2023-05-15T04:40:36.210Z,3.43
2023-05-15T04:43:04.275Z,4.50
2023-05-15T04:45:32.181Z,3.43
2023-05-15T04:48:01.442Z,2.70
2023-05-15T04:50:29.430Z,3.00
2023-05-15T04:52:57.598Z,3.20
2023-05-15T04:55:25.640Z,3.50
2023-05-15T04:57:53.746Z,6.33
2023-05-15T05:00:21.675Z,3.70
2023-05-15T05:02:49.733Z,2.80
2023-05-15T05:05:19.234Z,4.10
2023-05-15T05:07:47.104Z,3.63
2023-05-15T05:10:15.364Z,3.73
2023-05-15T05:12:43.266Z,4.30
2023-05-15T05:15:11.766Z,3.87
2023-05-15T05:17:39.715Z,4.87
2023-05-15T05:20:12.942Z,5.17
2023-05-15T05:22:42.771Z,3.67
2023-05-15T05:25:11.151Z,3.80
2023-05-15T05:27:39.095Z,4.00
2023-05-15T05:30:08.541Z,3.77
2023-05-15T05:32:36.445Z,5.37
2023-05-15T05:35:04.899Z,4.67
2023-05-15T05:37:32.787Z,3.67
2023-05-15T05:40:02.015Z,3.97
2023-05-15T05:42:29.897Z,3.73
2023-05-15T05:44:57.939Z,3.60
2023-05-15T05:47:25.986Z,3.20
2023-05-15T05:49:55.194Z,3.60
2023-05-15T05:52:23.179Z,3.07
2023-05-15T05:54:51.023Z,3.67
2023-05-15T05:57:20.557Z,3.53
2023-05-15T05:59:49.812Z,3.30
2023-05-15T06:02:17.865Z,2.90
2023-05-15T06:04:45.998Z,3.00
2023-05-15T06:07:14.244Z,2.33
2023-05-15T06:09:42.174Z,2.87
2023-05-15T06:12:10.060Z,2.93
2023-05-15T06:14:39.355Z,2.97
2023-05-15T06:17:07.355Z,2.70
2023-05-15T06:19:35.258Z,2.63
2023-05-15T06:22:03.216Z,4.00
2023-05-15T06:24:31.123Z,3.17
2023-05-15T06:26:59.148Z,2.77
2023-05-15T06:29:27.973Z,3.33
2023-05-15T06:31:57.334Z,3.50
2023-05-15T06:34:25.280Z,2.97
2023-05-15T06:36:53.377Z,3.30
2023-05-15T06:39:21.287Z,2.93
2023-05-15T06:41:49.378Z,3.40
2023-05-15T06:44:17.219Z,3.50
2023-05-15T06:46:45.213Z,3.03
2023-05-15T06:49:14.404Z,3.13
2023-05-15T06:51:42.381Z,3.93
2023-05-15T06:54:10.259Z,5.73
2023-05-15T06:56:38.205Z,4.20
2023-05-15T06:59:06.113Z,4.30
2023-05-15T07:01:33.997Z,4.93
2023-05-15T07:04:01.976Z,4.67
2023-05-15T07:06:32.025Z,4.30
2023-05-15T07:09:00.334Z,4.10
2023-05-15T07:11:29.418Z,4.63
2023-05-15T07:13:57.562Z,4.53
2023-05-15T07:16:25.555Z,6.43
2023-05-15T07:18:53.523Z,5.13
2023-05-15T07:21:21.445Z,4.83
2023-05-15T07:23:50.602Z,6.03
2023-05-15T07:26:28.642Z,5.03
2023-05-15T07:29:00.625Z,5.30
2023-05-15T07:31:28.625Z,5.27
2023-05-15T07:33:56.493Z,6.07
2023-05-15T07:36:24.554Z,6.67
2023-05-15T07:38:53.790Z,5.03
2023-05-15T07:41:22.032Z,6.10
2023-05-15T07:43:49.990Z,5.87
2023-05-15T07:46:17.848Z,4.77
2023-05-15T07:48:45.814Z,5.33
2023-05-15T07:51:13.792Z,5.90
2023-05-15T07:53:41.679Z,5.17
2023-05-15T07:56:11.684Z,5.53
2023-05-15T07:58:40.316Z,5.00
2023-05-15T08:01:08.201Z,6.97
2023-05-15T08:03:36.150Z,4.87
2023-05-15T08:06:04.238Z,6.17
2023-05-15T08:08:32.143Z,4.80
2023-05-15T08:10:59.990Z,5.13
2023-05-15T08:13:29.503Z,5.00
2023-05-15T08:15:57.569Z,6.60
2023-05-15T08:18:25.465Z,7.90
2023-05-15T08:20:53.432Z,6.70
2023-05-15T08:23:21.355Z,6.20
2023-05-15T08:25:50.942Z,7.00
2023-05-15T08:28:18.760Z,7.27
2023-05-15T08:30:47.946Z,10.40
2023-05-15T08:33:15.955Z,7.00
2023-05-15T08:35:43.928Z,7.43
2023-05-15T08:38:11.812Z,8.17
2023-05-15T08:40:40.786Z,9.13
2023-05-15T08:43:16.320Z,7.90
2023-05-15T08:45:44.736Z,8.63
2023-05-15T08:48:16.574Z,7.77
2023-05-15T08:50:45.065Z,7.83
2023-05-15T08:53:14.137Z,7.80
2023-05-15T08:55:43.251Z,8.23
2023-05-15T08:58:11.305Z,9.30
2023-05-15T09:00:39.822Z,8.73
2023-05-15T09:03:08.280Z,9.33
2023-05-15T09:05:39.965Z,7.40
2023-05-15T09:08:09.274Z,8.30
2023-05-15T09:10:37.318Z,8.20
2023-05-15T09:13:07.497Z,8.23
2023-05-15T09:15:38.426Z,10.07
2023-05-15T09:18:08.041Z,10.30
2023-05-15T09:20:38.925Z,8.90
2023-05-15T09:23:22.691Z,11.60
2023-05-15T09:25:53.838Z,9.30
2023-05-15T09:28:30.243Z,6.83
2023-05-15T09:31:00.952Z,15.10
2023-05-15T09:33:30.458Z,8.23
2023-05-15T09:35:59.966Z,12.13
2023-05-15T09:38:27.860Z,11.20
2023-05-15T09:41:06.381Z,10.93
2023-05-15T09:43:39.160Z,8.30
2023-05-15T09:46:08.339Z,7.27
2023-05-15T09:48:36.641Z,9.40
2023-05-15T09:51:15.299Z,7.87
2023-05-15T09:53:43.200Z,11.50
2023-05-15T09:56:11.422Z,9.90
2023-05-15T09:58:39.300Z,10.00
2023-05-15T10:01:12.403Z,11.27
2023-05-15T10:03:43.708Z,10.10
2023-05-15T10:06:20.063Z,9.30
2023-05-15T10:08:53.165Z,7.10
2023-05-15T10:11:22.607Z,8.97
2023-05-15T10:13:50.779Z,7.70
2023-05-15T10:16:21.252Z,8.40
2023-05-15T10:18:51.588Z,10.33
2023-05-15T10:21:23.483Z,8.47
2023-05-15T10:23:52.631Z,10.30
2023-05-15T10:26:24.952Z,8.70
2023-05-15T10:28:54.008Z,7.93
2023-05-15T10:31:22.920Z,8.73
2023-05-15T10:33:52.414Z,7.53
2023-05-15T10:36:22.100Z,9.63
2023-05-15T10:38:51.491Z,9.77
2023-05-15T10:41:22.488Z,9.63
2023-05-15T10:43:50.830Z,7.23
2023-05-15T10:46:18.863Z,6.67
2023-05-15T10:48:46.941Z,10.80
2023-05-15T10:51:17.133Z,7.37
2023-05-15T10:53:47.168Z,7.60
2023-05-15T10:56:16.760Z,7.30
2023-05-15T10:58:48.819Z,8.87
2023-05-15T11:01:28.061Z,9.37
2023-05-15T11:04:13.398Z,7.90
2023-05-15T11:06:43.757Z,6.73
2023-05-15T11:09:41.299Z,10.57
2023-05-15T11:12:11.586Z,6.30
2023-05-15T11:14:41.836Z,5.77
2023-05-15T11:17:11.769Z,4.03
2023-05-15T11:19:57.597Z,6.40
2023-05-15T11:22:32.975Z,5.20
2023-05-15T11:25:04.989Z,5.67
2023-05-15T11:27:34.294Z,4.73
2023-05-15T11:30:15.749Z,4.97
2023-05-15T11:32:52.018Z,5.00
2023-05-15T11:35:22.438Z,6.27
2023-05-15T11:37:51.875Z,4.40
2023-05-15T11:40:26.571Z,5.60
2023-05-15T11:43:08.646Z,5.03
2023-05-15T11:45:38.524Z,4.37
2023-05-15T11:48:08.285Z,4.57
2023-05-15T11:50:37.547Z,4.80
2023-05-15T11:53:07.896Z,6.47
2023-05-15T11:55:39.002Z,3.90
2023-05-15T11:58:07.329Z,3.90
2023-05-15T12:00:35.215Z,4.10
2023-05-15T12:03:04.650Z,5.10
2023-05-15T12:05:33.070Z,5.37
2023-05-15T12:08:02.492Z,5.20
2023-05-15T12:10:32.146Z,6.13
2023-05-15T12:13:01.538Z,5.63
2023-05-15T12:15:29.539Z,7.70
2023-05-15T12:17:58.261Z,4.30
2023-05-15T12:20:27.302Z,6.83
2023-05-15T12:22:55.391Z,6.23
2023-05-15T12:25:23.375Z,5.47
2023-05-15T12:27:51.499Z,5.30
2023-05-15T12:30:21.191Z,4.50
2023-05-15T12:32:50.394Z,5.03
2023-05-15T12:35:18.507Z,4.53
2023-05-15T12:37:46.648Z,4.67
2023-05-15T12:40:17.401Z,4.30
2023-05-15T12:42:46.565Z,5.13
2023-05-15T12:45:15.830Z,6.00
2023-05-15T12:47:46.404Z,6.27
2023-05-15T12:50:16.716Z,4.70
2023-05-15T12:52:49.056Z,4.83
2023-05-15T12:55:18.308Z,5.33
2023-05-15T12:57:46.689Z,3.73
2023-05-15T13:00:16.475Z,4.23
2023-05-15T13:02:46.642Z,5.17
2023-05-15T13:05:15.127Z,5.90
2023-05-15T13:07:44.258Z,5.00
2023-05-15T13:10:13.668Z,4.47
2023-05-15T13:12:44.673Z,4.50
2023-05-15T13:15:25.720Z,68.60
2023-05-15T13:17:59.021Z,8.83
2023-05-15T13:20:28.005Z,5.10
2023-05-15T13:22:56.270Z,4.83
2023-05-15T13:25:24.125Z,5.30
2023-05-15T13:27:52.941Z,4.97
2023-05-15T13:30:21.040Z,4.97
2023-05-15T13:32:48.899Z,5.00
2023-05-15T13:35:18.176Z,4.70
2023-05-15T13:37:46.075Z,5.33
2023-05-15T13:40:14.819Z,5.97
2023-05-15T13:42:44.181Z,4.67
2023-05-15T13:45:14.549Z,4.67
2023-05-15T13:47:42.663Z,4.70
2023-05-15T13:50:12.644Z,5.20
2023-05-15T13:52:43.110Z,5.07
2023-05-15T13:55:11.930Z,5.93
2023-05-15T13:57:40.862Z,5.03
2023-05-15T14:00:12.670Z,4.97
2023-05-15T14:02:40.897Z,4.63
2023-05-15T14:05:09.910Z,5.10
2023-05-15T14:07:38.317Z,4.83
2023-05-15T14:10:09.576Z,5.77
2023-05-15T14:12:37.620Z,3.93
2023-05-15T14:15:06.437Z,4.93
2023-05-15T14:17:34.366Z,5.40
2023-05-15T14:20:02.291Z,4.90
2023-05-15T14:22:30.151Z,4.83
2023-05-15T14:24:58.311Z,5.07
2023-05-15T14:27:27.551Z,4.47
2023-05-15T14:29:56.670Z,4.40
2023-05-15T14:32:24.884Z,4.80
2023-05-15T14:34:53.095Z,4.33
2023-05-15T14:37:21.012Z,6.53
2023-05-15T14:39:48.932Z,4.30
2023-05-15T14:42:19.954Z,4.60
2023-05-15T14:44:49.482Z,5.00
2023-05-15T14:47:17.522Z,5.00
2023-05-15T14:49:45.476Z,4.70
2023-05-15T14:52:13.471Z,4.63
2023-05-15T14:54:41.456Z,5.13
2023-05-15T14:57:09.402Z,4.53
2023-05-15T14:59:37.272Z,5.27
2023-05-15T15:02:06.925Z,4.83
2023-05-15T15:04:35.057Z,5.60
2023-05-15T15:07:04.858Z,5.03
2023-05-15T15:09:32.757Z,5.20
2023-05-15T15:12:00.739Z,5.03
2023-05-15T15:14:28.606Z,4.57
2023-05-15T15:16:56.503Z,5.33
2023-05-15T15:19:25.873Z,5.07
2023-05-15T15:21:53.921Z,5.70
2023-05-15T15:24:22.086Z,5.33
2023-05-15T15:26:50.076Z,6.43
2023-05-15T15:29:18.105Z,6.17
2023-05-15T15:31:45.946Z,5.97
2023-05-15T15:34:13.784Z,5.40
2023-05-15T15:36:43.667Z,6.53
2023-05-15T15:39:12.904Z,10.83
2023-05-15T15:41:41.002Z,6.90
2023-05-15T15:44:08.926Z,8.90
2023-05-15T15:46:36.790Z,7.50
2023-05-15T15:49:06.633Z,6.13
2023-05-15T15:51:34.828Z,6.83
2023-05-15T15:54:04.161Z,6.50
2023-05-15T15:56:32.109Z,6.73
2023-05-15T15:59:00.036Z,5.93
2023-05-15T16:01:28.709Z,6.30
2023-05-15T16:03:56.858Z,6.43
2023-05-15T16:06:24.878Z,6.60
2023-05-15T16:08:52.902Z,6.97
2023-05-15T16:11:22.510Z,6.70
2023-05-15T16:13:50.471Z,7.00
2023-05-15T16:16:18.449Z,6.40
2023-05-15T16:18:46.425Z,6.70
2023-05-15T16:21:14.706Z,7.33
2023-05-15T16:23:42.708Z,7.57
2023-05-15T16:26:11.402Z,7.07
2023-05-15T16:28:40.740Z,7.43
2023-05-15T16:31:09.283Z,6.50
2023-05-15T16:33:37.359Z,6.50
2023-05-15T16:36:05.859Z,7.40
2023-05-15T16:38:33.789Z,8.33
2023-05-15T16:41:02.176Z,6.27
2023-05-15T16:43:30.409Z,6.17
2023-05-15T16:45:59.887Z,7.43
2023-05-15T16:48:28.789Z,7.03
2023-05-15T16:50:56.890Z,7.20
2023-05-15T16:53:25.008Z,7.10
2023-05-15T16:55:54.018Z,7.20
2023-05-15T16:58:21.953Z,6.67
2023-05-15T17:00:50.208Z,7.50
2023-05-15T17:03:20.314Z,7.87
2023-05-15T17:05:48.442Z,7.20
2023-05-15T17:08:16.256Z,9.87
2023-05-15T17:10:44.202Z,8.73
2023-05-15T17:13:12.027Z,7.50
2023-05-15T17:15:39.930Z,7.40
2023-05-15T17:18:08.280Z,7.07
2023-05-15T17:20:37.524Z,6.23
2023-05-15T17:23:05.433Z,6.90
2023-05-15T17:25:33.318Z,6.43
2023-05-15T17:28:01.189Z,7.23
2023-05-15T17:30:29.109Z,7.33
2023-05-15T17:32:57.162Z,9.03
2023-05-15T17:35:25.475Z,8.30
2023-05-15T17:37:54.875Z,5.53
2023-05-15T17:40:22.723Z,6.13
2023-05-15T17:42:50.587Z,5.87
2023-05-15T17:45:18.527Z,6.37
2023-05-15T17:47:46.513Z,6.40
2023-05-15T17:50:14.679Z,7.07
2023-05-15T17:52:42.662Z,7.00
2023-05-15T17:55:12.036Z,7.37
2023-05-15T17:57:39.886Z,6.23
2023-05-15T18:00:09.204Z,7.00
2023-05-15T18:02:37.156Z,10.60
2023-05-15T18:05:05.343Z,7.33
2023-05-15T18:07:33.159Z,5.83
2023-05-15T18:10:01.113Z,7.43
2023-05-15T18:12:30.391Z,7.33
2023-05-15T18:14:58.348Z,6.23
2023-05-15T18:17:26.352Z,6.70
2023-05-15T18:19:54.301Z,8.03
2023-05-15T18:22:22.146Z,7.00
2023-05-15T18:24:50.081Z,7.60
2023-05-15T18:27:17.934Z,6.93
2023-05-15T18:29:47.116Z,7.53
2023-05-15T18:32:14.976Z,8.27
2023-05-15T18:34:42.886Z,7.00
2023-05-15T18:37:10.806Z,8.00
2023-05-15T18:39:39.459Z,7.00
2023-05-15T18:42:07.947Z,7.63
2023-05-15T18:44:35.988Z,6.70
2023-05-15T18:47:05.793Z,7.80
2023-05-15T18:49:33.838Z,6.90
2023-05-15T18:52:01.673Z,9.30
2023-05-15T18:54:29.582Z,7.50
2023-05-15T18:56:57.500Z,7.50
2023-05-15T18:59:25.496Z,7.37
2023-05-15T19:01:54.136Z,7.27
2023-05-15T19:04:23.508Z,6.17
2023-05-15T19:06:51.399Z,6.30
2023-05-15T19:09:19.762Z,6.23
2023-05-15T19:11:49.372Z,9.07
2023-05-15T19:14:18.036Z,8.23
2023-05-15T19:16:46.392Z,9.80
2023-05-15T19:19:14.738Z,8.17
2023-05-15T19:21:44.414Z,8.40
2023-05-15T19:24:12.339Z,8.57
2023-05-15T19:26:40.267Z,8.87
2023-05-15T19:29:08.142Z,8.30
2023-05-15T19:31:37.350Z,10.73
2023-05-15T19:34:05.304Z,8.17
2023-05-15T19:36:33.225Z,10.77
2023-05-15T19:39:02.459Z,9.70
2023-05-15T19:41:30.519Z,10.40
2023-05-15T19:43:58.372Z,9.40
2023-05-15T19:46:26.363Z,10.60
2023-05-15T19:48:54.301Z,9.70
2023-05-15T19:51:22.255Z,9.53
2023-05-15T19:53:50.093Z,9.73
2023-05-15T19:56:22.884Z,8.90
2023-05-15T19:58:50.734Z,8.60
2023-05-15T20:01:18.819Z,10.50
2023-05-15T20:03:46.855Z,8.53
2023-05-15T20:06:15.130Z,7.90
2023-05-15T20:08:43.431Z,9.30
2023-05-15T20:11:11.308Z,8.00
2023-05-15T20:13:40.514Z,8.67
2023-05-15T20:16:10.596Z,9.27
2023-05-15T20:18:39.535Z,7.93
2023-05-15T20:21:07.628Z,9.13
2023-05-15T20:23:35.554Z,8.80
2023-05-15T20:26:04.864Z,8.43
2023-05-15T20:28:32.842Z,8.70
2023-05-15T20:31:02.556Z,9.37
2023-05-15T20:33:30.494Z,9.33
2023-05-15T20:35:58.705Z,9.33
2023-05-15T20:38:26.540Z,9.70
2023-05-15T20:40:54.456Z,10.93
2023-05-15T20:43:22.635Z,12.00
2023-05-15T20:45:50.914Z,9.90
2023-05-15T20:48:20.292Z,10.20
2023-05-15T20:50:48.626Z,10.00
2023-05-15T20:53:16.619Z,9.40
2023-05-15T20:55:44.634Z,8.43
2023-05-15T20:58:12.565Z,8.67
2023-05-15T21:00:40.605Z,9.27
2023-05-15T21:03:09.371Z,7.80
2023-05-15T21:05:38.942Z,9.57
2023-05-15T21:08:06.947Z,9.57
2023-05-15T21:10:34.867Z,9.57
2023-05-15T21:13:02.890Z,9.23
2023-05-15T21:15:30.748Z,11.00
2023-05-15T21:17:58.671Z,10.90
2023-05-15T21:20:27.122Z,11.80
2023-05-15T21:22:56.561Z,11.93
2023-05-15T21:25:24.466Z,12.20
2023-05-15T21:27:52.391Z,13.30
2023-05-15T21:30:20.639Z,11.43
2023-05-15T21:32:48.757Z,11.73
2023-05-15T21:35:16.954Z,13.67
2023-05-15T21:37:44.751Z,13.63
2023-05-15T21:40:14.800Z,14.23
2023-05-15T21:42:43.058Z,12.70
2023-05-15T21:45:11.329Z,15.47
2023-05-15T21:47:39.246Z,13.77
2023-05-15T21:50:08.074Z,12.70
2023-05-15T21:52:36.239Z,14.40
2023-05-15T21:55:04.906Z,12.80
2023-05-15T21:57:34.202Z,16.03
2023-05-15T22:00:02.582Z,12.93
2023-05-15T22:02:30.888Z,12.20
2023-05-15T22:04:58.862Z,13.20
2023-05-15T22:07:26.740Z,12.10
2023-05-15T22:09:54.630Z,12.33
2023-05-15T22:12:22.765Z,13.43
2023-05-15T22:14:58.909Z,12.93
2023-05-15T22:17:30.553Z,13.40
2023-05-15T22:20:07.119Z,12.70
2023-05-15T22:22:36.344Z,13.80
2023-05-15T22:25:04.484Z,12.00
2023-05-15T22:27:32.633Z,13.37
2023-05-15T22:30:02.008Z,11.20
2023-05-15T22:32:29.922Z,13.60
2023-05-15T22:34:57.846Z,12.73
2023-05-15T22:37:25.741Z,13.87
2023-05-15T22:39:53.642Z,16.20
2023-05-15T22:42:21.435Z,14.67
2023-05-15T22:44:49.429Z,16.07
2023-05-15T22:47:18.976Z,15.57
2023-05-15T22:49:46.862Z,17.67
2023-05-15T22:52:14.690Z,19.40
2023-05-15T22:54:42.523Z,18.27
2023-05-15T22:57:10.508Z,14.80
2023-05-15T22:59:38.859Z,18.00
2023-05-15T23:02:07.036Z,17.00
2023-05-15T23:04:36.594Z,16.77
2023-05-15T23:07:05.111Z,19.70
2023-05-15T23:09:32.993Z,18.40
2023-05-15T23:12:01.266Z,21.67
2023-05-15T23:14:29.133Z,20.70
2023-05-15T23:16:56.991Z,19.63
2023-05-15T23:19:24.934Z,23.70
2023-05-15T23:21:54.264Z,22.10
2023-05-15T23:24:22.207Z,17.60
2023-05-15T23:26:50.127Z,17.60
2023-05-15T23:29:18.144Z,21.43
2023-05-15T23:31:46.137Z,22.13
2023-05-15T23:34:14.181Z,20.83
2023-05-15T23:36:42.133Z,19.40
2023-05-15T23:39:11.322Z,21.90
2023-05-15T23:41:39.255Z,24.00
2023-05-15T23:44:07.110Z,19.57
2023-05-15T23:46:35.795Z,18.23
2023-05-15T23:49:04.086Z,19.53
2023-05-15T23:51:32.285Z,19.83
2023-05-15T23:54:00.236Z,21.70
2023-05-15T23:56:29.548Z,20.80
2023-05-15T23:58:57.413Z,19.47
